Time;durP1;ratioP1;P1;durP2;ratioP2;P2;SDS_P1;SDS_P2;PMS_P1;PMS_P2;Temp;Humidity;BMP_temperature;BMP_pressure;BME280_temperature;BME280_humidity;BME280_pressure;Samples;Min_cycle;Max_cycle;Signal;HPM_P1;HPM_P2
2023/05/03 00:00:06;;;;;;;4.62;2.60;;;;;;;;;;4273649;33;20359;-71
2023/05/03 02:02:39;;;;;;;8.63;4.10;;;;;;;;;;4286312;33;20129;-71
2023/05/03 02:05:05;;;;;;;7.68;3.50;;;;;;;;;;4292540;33;20086;-71
2023/05/03 02:07:33;;;;;;;7.87;3.35;;;;;;;;;;4293583;33;20045;-71
2023/05/03 02:09:59;;;;;;;9.45;3.28;;;;;;;;;;4294615;33;20129;-71
2023/05/03 02:12:25;;;;;;;8.82;3.65;;;;;;;;;;4293397;33;20479;-72
2023/05/03 02:14:51;;;;;;;5.05;3.03;;;;;;;;;;4262929;33;20061;-71
2023/05/03 02:17:19;;;;;;;7.30;3.58;;;;;;;;;;4265417;33;20060;-71
2023/05/03 02:19:45;;;;;;;6.72;3.83;;;;;;;;;;4264339;33;20042;-71
2023/05/03 02:22:11;;;;;;;10.77;4.18;;;;;;;;;;4265475;33;20076;-70
2023/05/03 02:24:38;;;;;;;8.63;3.47;;;;;;;;;;4264996;33;20075;-71
2023/05/03 02:27:05;;;;;;;8.80;4.55;;;;;;;;;;4264799;33;20067;-71
2023/05/03 02:29:31;;;;;;;11.65;3.78;;;;;;;;;;4265306;33;20050;-71
2023/05/03 02:31:58;;;;;;;10.75;3.30;;;;;;;;;;4265104;33;20492;-72
2023/05/03 02:34:25;;;;;;;8.80;3.45;;;;;;;;;;4263719;33;20091;-72
2023/05/03 02:36:52;;;;;;;7.97;3.92;;;;;;;;;;4263401;33;20493;-72
2023/05/03 02:39:19;;;;;;;6.32;3.42;;;;;;;;;;4262906;33;20049;-71
2023/05/03 02:41:46;;;;;;;6.82;2.87;;;;;;;;;;4265367;33;20058;-71
2023/05/03 02:44:12;;;;;;;6.62;3.05;;;;;;;;;;4264888;33;20063;-71
2023/05/03 02:46:40;;;;;;;5.95;3.45;;;;;;;;;;4289962;33;20106;-71
2023/05/03 02:49:07;;;;;;;5.05;3.12;;;;;;;;;;4292642;33;20361;-72
2023/05/03 02:51:34;;;;;;;9.05;3.03;;;;;;;;;;4295009;33;20057;-71
2023/05/03 02:54:00;;;;;;;4.20;2.95;;;;;;;;;;4296426;33;20418;-71
2023/05/03 02:56:27;;;;;;;9.88;3.58;;;;;;;;;;4296669;33;20052;-70
2023/05/03 02:58:53;;;;;;;8.20;3.28;;;;;;;;;;4295020;33;20165;-71
2023/05/03 03:01:20;;;;;;;5.35;2.87;;;;;;;;;;4275462;33;20120;-71
2023/05/03 03:03:46;;;;;;;6.78;3.47;;;;;;;;;;4280005;33;20081;-71
2023/05/03 03:06:13;;;;;;;5.93;3.55;;;;;;;;;;4279591;33;20049;-71
2023/05/03 03:08:39;;;;;;;2.75;2.55;;;;;;;;;;4291795;33;20052;-71
2023/05/03 03:11:06;;;;;;;6.68;3.40;;;;;;;;;;4292442;33;20045;-72
2023/05/03 03:13:33;;;;;;;7.05;3.10;;;;;;;;;;4263796;33;20076;-71
2023/05/03 03:15:59;;;;;;;8.18;2.97;;;;;;;;;;4249149;33;20058;-72
2023/05/03 03:18:25;;;;;;;7.45;3.00;;;;;;;;;;4236340;33;20109;-71
2023/05/03 03:20:51;;;;;;;6.87;3.05;;;;;;;;;;4236681;33;20357;-71
2023/05/03 03:23:18;;;;;;;5.03;2.87;;;;;;;;;;4236030;33;20416;-72
2023/05/03 03:25:44;;;;;;;10.00;3.65;;;;;;;;;;4236159;33;20116;-71
2023/05/03 03:28:10;;;;;;;10.10;3.17;;;;;;;;;;4236116;33;20220;-71
2023/05/03 03:30:37;;;;;;;9.40;3.60;;;;;;;;;;4236705;33;20042;-71
2023/05/03 03:33:05;;;;;;;6.95;3.15;;;;;;;;;;4247388;33;20045;-72
2023/05/03 03:35:32;;;;;;;6.00;2.55;;;;;;;;;;4248411;33;20372;-71
2023/05/03 03:37:59;;;;;;;5.32;3.00;;;;;;;;;;4250695;33;20988;-71
2023/05/03 03:40:25;;;;;;;6.32;2.95;;;;;;;;;;4250930;33;20046;-72
2023/05/03 03:42:51;;;;;;;12.85;3.20;;;;;;;;;;4250100;33;20049;-71
2023/05/03 03:45:18;;;;;;;9.40;3.20;;;;;;;;;;4261889;33;20168;-71
2023/05/03 03:47:44;;;;;;;10.10;3.12;;;;;;;;;;4286868;33;20045;-72
2023/05/03 03:50:11;;;;;;;4.62;3.12;;;;;;;;;;4295966;33;20057;-71
2023/05/03 03:52:37;;;;;;;6.82;3.22;;;;;;;;;;4264888;33;20084;-72
2023/05/03 03:55:04;;;;;;;8.93;3.78;;;;;;;;;;4264818;33;20444;-71
2023/05/03 03:57:30;;;;;;;7.47;3.30;;;;;;;;;;4264680;33;20452;-71
2023/05/03 03:59:58;;;;;;;8.50;4.32;;;;;;;;;;4262726;33;20050;-71
2023/05/03 04:02:25;;;;;;;6.78;3.65;;;;;;;;;;4264305;33;20853;-71
2023/05/03 04:04:51;;;;;;;6.32;3.70;;;;;;;;;;4264708;33;20045;-71
2023/05/03 04:07:17;;;;;;;11.15;3.50;;;;;;;;;;4263906;33;20056;-71
2023/05/03 04:09:44;;;;;;;8.52;3.65;;;;;;;;;;4262948;33;20054;-73
2023/05/03 04:12:11;;;;;;;9.10;3.78;;;;;;;;;;4263718;33;20046;-71
2023/05/03 04:14:37;;;;;;;10.13;4.32;;;;;;;;;;4264663;33;20041;-72
2023/05/03 04:17:03;;;;;;;11.63;4.95;;;;;;;;;;4264183;33;20068;-71
2023/05/03 04:19:31;;;;;;;8.05;5.50;;;;;;;;;;4265152;33;20064;-71
2023/05/03 04:21:57;;;;;;;11.12;4.62;;;;;;;;;;4262773;33;20050;-73
2023/05/03 04:24:23;;;;;;;10.45;4.50;;;;;;;;;;4287573;33;20053;-72
2023/05/03 04:26:50;;;;;;;12.30;4.00;;;;;;;;;;4293122;33;20049;-73
2023/05/03 04:29:18;;;;;;;9.48;4.55;;;;;;;;;;4264532;33;20144;-72
2023/05/03 04:31:44;;;;;;;10.25;4.00;;;;;;;;;;4263796;33;20088;-72
2023/05/03 04:34:14;;;;;;;9.05;3.95;;;;;;;;;;4261614;33;20956;-73
2023/05/03 04:36:41;;;;;;;8.45;3.42;;;;;;;;;;4263274;33;20069;-72
2023/05/03 04:39:10;;;;;;;5.18;3.33;;;;;;;;;;4262854;33;20122;-72
2023/05/03 04:41:44;;;;;;;10.10;4.47;;;;;;;;;;4264308;33;20041;-72
2023/05/03 04:44:11;;;;;;;7.28;3.67;;;;;;;;;;4262638;33;20407;-73
2023/05/03 04:46:44;;;;;;;8.38;4.10;;;;;;;;;;4264737;33;20066;-72
2023/05/03 04:49:10;;;;;;;5.37;3.97;;;;;;;;;;4258650;33;20038;-72
2023/05/03 04:51:36;;;;;;;9.30;3.83;;;;;;;;;;4253040;33;20828;-72
2023/05/03 04:54:02;;;;;;;12.65;4.65;;;;;;;;;;4224379;34;20038;-73
2023/05/03 04:56:28;;;;;;;9.27;4.78;;;;;;;;;;4220214;33;20080;-72
2023/05/03 04:58:56;;;;;;;13.07;4.28;;;;;;;;;;4238691;33;20084;-72
2023/05/03 05:01:26;;;;;;;13.20;4.53;;;;;;;;;;4256636;33;20054;-72
2023/05/03 05:03:53;;;;;;;16.62;4.30;;;;;;;;;;4260195;33;20049;-72
2023/05/03 05:06:21;;;;;;;8.13;4.50;;;;;;;;;;4265214;33;20038;-71
2023/05/03 05:08:47;;;;;;;7.22;4.85;;;;;;;;;;4260347;33;20053;-72
2023/05/03 05:11:14;;;;;;;10.88;4.90;;;;;;;;;;4266146;33;20077;-72
2023/05/03 05:13:40;;;;;;;6.95;4.03;;;;;;;;;;4251541;33;20104;-72
2023/05/03 05:16:06;;;;;;;11.98;4.28;;;;;;;;;;4254160;33;20484;-71
2023/05/03 05:18:33;;;;;;;17.17;4.93;;;;;;;;;;4251625;33;20058;-71
2023/05/03 05:21:00;;;;;;;10.70;4.05;;;;;;;;;;4251693;33;20310;-72
2023/05/03 05:23:28;;;;;;;8.90;3.90;;;;;;;;;;4251569;33;20612;-73
2023/05/03 05:25:58;;;;;;;8.02;3.87;;;;;;;;;;4263088;33;20072;-78
2023/05/03 05:28:26;;;;;;;5.60;3.65;;;;;;;;;;4278829;33;20083;-74
2023/05/03 05:30:53;;;;;;;9.35;3.53;;;;;;;;;;4279912;33;20458;-74
2023/05/03 05:33:20;;;;;;;11.50;4.15;;;;;;;;;;4290635;33;20053;-74
2023/05/03 05:35:47;;;;;;;8.90;4.20;;;;;;;;;;4294240;33;20049;-74
2023/05/03 05:38:16;;;;;;;10.77;4.25;;;;;;;;;;4292727;33;20216;-75
2023/05/03 05:40:42;;;;;;;6.93;3.20;;;;;;;;;;4289649;33;20037;-73
2023/05/03 05:43:08;;;;;;;7.47;3.03;;;;;;;;;;4294813;33;20063;-73
2023/05/03 05:45:35;;;;;;;4.20;3.00;;;;;;;;;;4294033;33;20037;-74
2023/05/03 05:48:02;;;;;;;5.55;2.62;;;;;;;;;;4304081;33;20074;-73
2023/05/03 05:50:30;;;;;;;3.78;2.75;;;;;;;;;;4299538;33;20177;-76
2023/05/03 05:52:57;;;;;;;10.23;2.75;;;;;;;;;;4309219;33;20126;-74
2023/05/03 05:55:23;;;;;;;2.35;2.12;;;;;;;;;;4308911;33;20060;-73
2023/05/03 05:57:50;;;;;;;11.63;3.35;;;;;;;;;;4280680;33;20172;-73
2023/05/03 06:00:18;;;;;;;7.30;3.00;;;;;;;;;;4277822;33;20049;-73
2023/05/03 06:02:44;;;;;;;4.70;2.78;;;;;;;;;;4273327;33;20045;-74
2023/05/03 06:05:11;;;;;;;5.43;3.05;;;;;;;;;;4265184;33;20079;-73
2023/05/03 06:07:37;;;;;;;7.65;2.83;;;;;;;;;;4266017;33;20140;-74
2023/05/03 06:10:03;;;;;;;5.75;2.53;;;;;;;;;;4269756;33;20110;-73
2023/05/03 06:12:30;;;;;;;4.35;2.62;;;;;;;;;;4236796;33;20038;-74
2023/05/03 06:14:56;;;;;;;3.65;2.05;;;;;;;;;;4240165;33;20169;-73
2023/05/03 06:17:24;;;;;;;3.58;2.80;;;;;;;;;;4241949;33;20539;-73
2023/05/03 06:19:50;;;;;;;6.37;2.80;;;;;;;;;;4235194;33;20046;-73
2023/05/03 06:22:18;;;;;;;4.93;3.15;;;;;;;;;;4222082;33;20081;-74
2023/05/03 06:24:44;;;;;;;5.78;2.95;;;;;;;;;;4221899;33;20064;-74
2023/05/03 06:27:11;;;;;;;6.85;3.65;;;;;;;;;;4222191;33;20077;-73
2023/05/03 06:29:37;;;;;;;9.05;3.72;;;;;;;;;;4223033;33;20047;-73
2023/05/03 06:32:04;;;;;;;11.38;3.80;;;;;;;;;;4230066;33;20087;-73
2023/05/03 06:34:30;;;;;;;7.80;3.78;;;;;;;;;;4231722;33;20472;-74
2023/05/03 06:36:56;;;;;;;11.98;4.05;;;;;;;;;;4256809;33;20061;-75
2023/05/03 06:39:23;;;;;;;6.03;3.10;;;;;;;;;;4244904;33;20279;-74
2023/05/03 06:41:49;;;;;;;16.40;2.90;;;;;;;;;;4246092;33;20151;-74
2023/05/03 06:44:16;;;;;;;6.20;3.80;;;;;;;;;;4259955;33;20046;-74
2023/05/03 06:46:44;;;;;;;9.90;2.75;;;;;;;;;;4262543;33;20049;-73
2023/05/03 06:49:10;;;;;;;9.40;2.90;;;;;;;;;;4262769;33;20076;-75
2023/05/03 06:51:36;;;;;;;7.45;2.62;;;;;;;;;;4263837;33;20134;-76
2023/05/03 06:54:07;;;;;;;2.35;1.90;;;;;;;;;;4264190;33;20063;-74
2023/05/03 06:56:33;;;;;;;4.70;1.92;;;;;;;;;;4264063;33;20092;-74
2023/05/03 06:59:00;;;;;;;2.33;2.15;;;;;;;;;;4263471;33;20515;-74
2023/05/03 07:01:26;;;;;;;5.75;2.85;;;;;;;;;;4261301;33;20053;-74
2023/05/03 07:03:52;;;;;;;3.67;2.00;;;;;;;;;;4268723;33;20123;-73
2023/05/03 07:06:19;;;;;;;4.75;2.87;;;;;;;;;;4274065;33;20067;-73
2023/05/03 07:08:45;;;;;;;1.98;1.42;;;;;;;;;;4271007;33;20049;-74
2023/05/03 07:11:11;;;;;;;4.43;1.90;;;;;;;;;;4286517;33;20048;-74
2023/05/03 07:13:37;;;;;;;1.50;1.35;;;;;;;;;;4289982;33;20512;-76
2023/05/03 07:16:04;;;;;;;1.62;1.52;;;;;;;;;;4298914;33;20045;-73
2023/05/03 07:18:30;;;;;;;2.25;1.60;;;;;;;;;;4306164;33;20599;-73
2023/05/03 07:20:56;;;;;;;4.50;2.12;;;;;;;;;;4299287;33;20079;-73
2023/05/03 07:23:22;;;;;;;4.60;1.50;;;;;;;;;;4293908;33;20420;-73
2023/05/03 07:25:48;;;;;;;5.00;1.75;;;;;;;;;;4293585;33;20083;-73
2023/05/03 07:28:15;;;;;;;1.15;1.15;;;;;;;;;;4294611;33;20054;-73
2023/05/03 07:30:41;;;;;;;2.20;1.30;;;;;;;;;;4299091;33;20063;-72
2023/05/03 07:33:07;;;;;;;1.50;1.20;;;;;;;;;;4302206;33;20493;-72
2023/05/03 07:35:33;;;;;;;1.77;1.65;;;;;;;;;;4294542;33;20053;-74
2023/05/03 07:38:00;;;;;;;4.10;1.95;;;;;;;;;;4300534;33;20071;-72
2023/05/03 07:40:27;;;;;;;2.83;1.60;;;;;;;;;;4304323;33;20371;-73
2023/05/03 07:42:53;;;;;;;3.17;1.58;;;;;;;;;;4305237;33;20078;-73
2023/05/03 07:45:20;;;;;;;1.40;1.30;;;;;;;;;;4297145;33;20037;-73
2023/05/03 07:47:46;;;;;;;2.28;1.65;;;;;;;;;;4300216;33;20049;-72
2023/05/03 07:50:12;;;;;;;2.08;1.20;;;;;;;;;;4254887;33;20061;-73
2023/05/03 07:52:39;;;;;;;1.92;1.10;;;;;;;;;;4253197;33;20046;-72
2023/05/03 07:55:06;;;;;;;5.97;1.65;;;;;;;;;;4231686;33;20421;-70
2023/05/03 07:57:32;;;;;;;4.93;1.80;;;;;;;;;;4233771;33;20106;-72
2023/05/03 07:59:58;;;;;;;1.45;0.75;;;;;;;;;;4230049;33;20054;-73
2023/05/03 08:02:24;;;;;;;5.97;1.45;;;;;;;;;;4245039;33;20541;-72
2023/05/03 08:04:51;;;;;;;5.72;1.20;;;;;;;;;;4249210;33;20597;-72
2023/05/03 08:07:17;;;;;;;2.33;1.62;;;;;;;;;;4249716;33;20064;-72
2023/05/03 08:09:43;;;;;;;1.25;1.10;;;;;;;;;;4248288;33;20071;-73
2023/05/03 08:12:09;;;;;;;1.45;1.10;;;;;;;;;;4247195;33;20862;-75
2023/05/03 08:14:36;;;;;;;3.03;1.40;;;;;;;;;;4248478;33;20058;-72
2023/05/03 08:17:05;;;;;;;2.95;1.75;;;;;;;;;;4217065;33;20035;-72
2023/05/03 08:19:34;;;;;;;1.37;1.35;;;;;;;;;;4207388;33;20069;-73
2023/05/03 08:22:06;;;;;;;3.50;1.15;;;;;;;;;;4218623;33;20068;-74
2023/05/03 08:24:42;;;;;;;3.17;1.30;;;;;;;;;;4218124;33;20043;-73
2023/05/03 08:27:09;;;;;;;2.08;1.10;;;;;;;;;;4233849;33;20306;-73
2023/05/03 08:29:38;;;;;;;7.53;1.62;;;;;;;;;;4235442;33;20390;-72
2023/05/03 08:32:04;;;;;;;1.30;1.20;;;;;;;;;;4233875;33;20072;-72
2023/05/03 08:34:31;;;;;;;1.37;1.27;;;;;;;;;;4238427;33;20083;-73
2023/05/03 08:36:57;;;;;;;2.65;1.90;;;;;;;;;;4238429;33;20091;-73
2023/05/03 08:39:25;;;;;;;6.12;1.98;;;;;;;;;;4238001;33;20054;-72
2023/05/03 08:41:54;;;;;;;1.75;1.40;;;;;;;;;;4237058;33;20065;-72
2023/05/03 08:44:22;;;;;;;3.80;2.00;;;;;;;;;;4250933;33;20145;-72
2023/05/03 08:46:48;;;;;;;3.62;1.20;;;;;;;;;;4252241;33;20043;-72
2023/05/03 08:49:16;;;;;;;3.42;1.60;;;;;;;;;;4278875;33;20079;-73
2023/05/03 08:51:44;;;;;;;2.95;1.30;;;;;;;;;;4276560;33;20033;-71
2023/05/03 08:54:10;;;;;;;2.33;1.27;;;;;;;;;;4266903;33;20061;-74
2023/05/03 08:56:40;;;;;;;2.62;1.48;;;;;;;;;;4268387;33;20050;-72
2023/05/03 08:59:07;;;;;;;3.30;1.50;;;;;;;;;;4268161;33;20065;-73
2023/05/03 09:01:37;;;;;;;1.05;0.90;;;;;;;;;;4271098;33;20087;-72
2023/05/03 09:04:04;;;;;;;5.95;1.60;;;;;;;;;;4276956;33;20057;-73
2023/05/03 09:06:32;;;;;;;5.40;1.17;;;;;;;;;;4273467;33;20096;-73
2023/05/03 09:08:58;;;;;;;4.57;1.30;;;;;;;;;;4251957;33;20597;-73
2023/05/03 09:11:28;;;;;;;8.20;1.40;;;;;;;;;;4250317;33;20041;-73
2023/05/03 09:14:10;;;;;;;1.02;1.00;;;;;;;;;;4247636;33;20050;-73
2023/05/03 09:16:37;;;;;;;0.90;0.90;;;;;;;;;;4241496;33;20043;-74
2023/05/03 09:19:07;;;;;;;1.48;0.90;;;;;;;;;;4244996;33;20050;-74
2023/05/03 09:21:33;;;;;;;1.30;1.15;;;;;;;;;;4263721;33;20551;-73
2023/05/03 09:24:00;;;;;;;1.60;1.20;;;;;;;;;;4259480;33;20084;-72
2023/05/03 09:26:27;;;;;;;4.72;1.58;;;;;;;;;;4244941;33;20122;-73
2023/05/03 09:28:55;;;;;;;1.10;1.10;;;;;;;;;;4241163;33;20070;-73
2023/05/03 09:31:21;;;;;;;7.53;1.40;;;;;;;;;;4245662;33;20050;-72
2023/05/03 09:33:47;;;;;;;5.37;2.78;;;;;;;;;;4250353;33;20073;-71
2023/05/03 09:36:13;;;;;;;1.27;1.20;;;;;;;;;;4249615;33;20483;-72
2023/05/03 09:38:39;;;;;;;3.47;1.37;;;;;;;;;;4249412;33;20505;-71
2023/05/03 09:41:06;;;;;;;9.98;1.55;;;;;;;;;;4278201;33;20479;-71
2023/05/03 09:43:32;;;;;;;3.47;1.48;;;;;;;;;;4279850;33;20061;-72
2023/05/03 09:46:08;;;;;;;3.35;1.20;;;;;;;;;;4279921;33;20037;-72
2023/05/03 09:48:35;;;;;;;2.05;1.80;;;;;;;;;;4277845;33;20053;-72
2023/05/03 09:51:04;;;;;;;1.45;1.35;;;;;;;;;;4263738;33;20060;-73
2023/05/03 09:53:31;;;;;;;4.18;2.10;;;;;;;;;;4277659;33;20133;-73
2023/05/03 09:55:58;;;;;;;5.75;1.25;;;;;;;;;;4266670;33;20037;-72
2023/05/03 09:58:26;;;;;;;1.30;1.20;;;;;;;;;;4281370;33;20053;-72
2023/05/03 10:00:53;;;;;;;2.95;1.37;;;;;;;;;;4285164;33;20070;-72
2023/05/03 10:03:40;;;;;;;2.83;1.45;;;;;;;;;;4302536;33;20044;-72
2023/05/03 10:06:14;;;;;;;4.20;1.37;;;;;;;;;;4302845;33;20045;-73
2023/05/03 10:08:50;;;;;;;2.12;1.15;;;;;;;;;;4293807;33;20410;-72
2023/05/03 10:11:17;;;;;;;4.22;1.98;;;;;;;;;;4298992;33;20463;-71
2023/05/03 10:13:43;;;;;;;1.90;1.30;;;;;;;;;;4302335;33;20435;-71
2023/05/03 10:16:16;;;;;;;1.65;1.55;;;;;;;;;;4268405;33;20399;-72
2023/05/03 10:18:47;;;;;;;1.27;1.17;;;;;;;;;;4271008;33;20061;-71
2023/05/03 10:21:23;;;;;;;3.60;1.83;;;;;;;;;;4271561;33;20041;-72
2023/05/03 10:24:08;;;;;;;1.33;1.23;;;;;;;;;;4262097;33;20114;-71
2023/05/03 10:26:34;;;;;;;3.17;1.33;;;;;;;;;;4264185;33;20063;-71
2023/05/03 10:29:00;;;;;;;3.92;1.55;;;;;;;;;;4260241;33;20062;-71
2023/05/03 10:31:43;;;;;;;3.05;1.70;;;;;;;;;;4264478;33;20038;-72
2023/05/03 10:34:23;;;;;;;1.75;1.20;;;;;;;;;;4253708;33;20061;-70
2023/05/03 10:36:51;;;;;;;4.95;1.35;;;;;;;;;;4248541;33;20138;-71
2023/05/03 10:39:18;;;;;;;2.33;1.45;;;;;;;;;;4248688;33;20085;-73
2023/05/03 10:41:55;;;;;;;3.67;1.83;;;;;;;;;;4250276;33;20046;-71
2023/05/03 10:44:26;;;;;;;4.20;1.67;;;;;;;;;;4248558;33;20045;-71
2023/05/03 10:46:54;;;;;;;2.17;1.62;;;;;;;;;;4250615;33;20075;-72
2023/05/03 10:49:21;;;;;;;4.55;1.52;;;;;;;;;;4249557;33;20068;-71
2023/05/03 10:51:48;;;;;;;4.22;2.47;;;;;;;;;;4250658;33;20179;-72
2023/05/03 10:54:16;;;;;;;3.08;2.50;;;;;;;;;;4257096;33;20624;-72
2023/05/03 10:56:48;;;;;;;2.45;1.45;;;;;;;;;;4261511;33;20482;-71
2023/05/03 10:59:16;;;;;;;6.00;1.40;;;;;;;;;;4245269;33;20056;-72
2023/05/03 11:01:43;;;;;;;3.75;1.23;;;;;;;;;;4398085;28;20049;-71
2023/05/03 11:04:15;;;;;;;4.90;1.50;;;;;;;;;;4263249;33;20088;-71
2023/05/03 11:06:41;;;;;;;1.25;1.02;;;;;;;;;;4256904;33;20078;-73
2023/05/03 11:09:09;;;;;;;2.35;1.30;;;;;;;;;;4253363;33;20392;-72
2023/05/03 11:11:38;;;;;;;1.40;1.40;;;;;;;;;;4260348;33;20055;-71
2023/05/03 11:14:04;;;;;;;8.93;1.80;;;;;;;;;;4250319;33;20062;-71
2023/05/03 11:16:30;;;;;;;1.75;1.33;;;;;;;;;;4249887;33;20603;-71
2023/05/03 11:18:57;;;;;;;2.25;1.17;;;;;;;;;;4259562;33;20460;-73
2023/05/03 11:21:24;;;;;;;3.08;1.20;;;;;;;;;;4254178;33;21017;-71
2023/05/03 11:23:50;;;;;;;5.18;1.50;;;;;;;;;;4276640;33;20049;-71
2023/05/03 11:26:16;;;;;;;7.55;2.87;;;;;;;;;;4276407;33;20475;-71
2023/05/03 11:28:43;;;;;;;3.58;1.80;;;;;;;;;;4264408;33;20071;-73
2023/05/03 11:31:10;;;;;;;3.45;2.10;;;;;;;;;;4276978;33;20083;-72
2023/05/03 11:33:36;;;;;;;2.28;1.30;;;;;;;;;;4274116;33;20065;-72
2023/05/03 11:36:04;;;;;;;1.62;1.52;;;;;;;;;;4277512;33;20228;-72
2023/05/03 11:38:31;;;;;;;4.25;1.33;;;;;;;;;;4302927;33;20484;-72
2023/05/03 11:40:58;;;;;;;2.65;1.60;;;;;;;;;;4310588;33;20078;-73
2023/05/03 11:43:25;;;;;;;4.43;1.35;;;;;;;;;;4289676;33;20451;-71
2023/05/03 11:45:54;;;;;;;6.32;1.60;;;;;;;;;;4303327;33;20041;-71
2023/05/03 11:48:20;;;;;;;2.53;1.52;;;;;;;;;;4300959;33;20153;-71
2023/05/03 11:50:47;;;;;;;1.55;1.45;;;;;;;;;;4301671;33;20052;-71
2023/05/03 11:53:14;;;;;;;3.90;2.35;;;;;;;;;;4268649;33;20082;-72
2023/05/03 11:55:41;;;;;;;2.72;1.80;;;;;;;;;;4263950;33;20240;-72
2023/05/03 11:58:11;;;;;;;5.35;1.70;;;;;;;;;;4267365;33;20050;-72
2023/05/03 12:00:37;;;;;;;4.30;1.70;;;;;;;;;;4264028;33;20550;-72
2023/05/03 12:03:03;;;;;;;2.30;1.90;;;;;;;;;;4265626;33;20095;-72
2023/05/03 12:05:29;;;;;;;2.20;1.70;;;;;;;;;;4261855;33;20093;-72
2023/05/03 12:07:55;;;;;;;3.65;1.87;;;;;;;;;;4265944;33;20112;-71
2023/05/03 12:10:22;;;;;;;2.12;1.77;;;;;;;;;;4263606;33;20456;-72
2023/05/03 12:12:58;;;;;;;2.25;1.30;;;;;;;;;;4262820;33;20053;-72
2023/05/03 12:15:31;;;;;;;2.85;1.55;;;;;;;;;;4283540;33;20037;-71
2023/05/03 12:17:58;;;;;;;1.55;1.35;;;;;;;;;;4273828;33;20406;-72
2023/05/03 12:20:27;;;;;;;1.27;1.17;;;;;;;;;;4266085;33;20063;-74
2023/05/03 12:22:54;;;;;;;2.55;1.48;;;;;;;;;;4260443;33;20108;-73
2023/05/03 12:25:21;;;;;;;3.75;2.10;;;;;;;;;;4250702;33;20042;-75
2023/05/03 12:27:47;;;;;;;2.95;1.40;;;;;;;;;;4246114;33;20068;-71
2023/05/03 12:30:14;;;;;;;2.40;2.10;;;;;;;;;;4247467;33;20525;-72
2023/05/03 12:32:40;;;;;;;3.22;1.45;;;;;;;;;;4247263;33;20072;-72
2023/05/03 12:35:10;;;;;;;6.20;2.10;;;;;;;;;;4249030;33;20042;-72
2023/05/03 12:37:36;;;;;;;4.80;2.17;;;;;;;;;;4245097;33;20058;-72
2023/05/03 12:40:02;;;;;;;4.62;1.77;;;;;;;;;;4248935;33;20137;-72
2023/05/03 12:42:29;;;;;;;10.13;1.83;;;;;;;;;;4250065;33;20072;-73
2023/05/03 12:44:58;;;;;;;2.22;1.35;;;;;;;;;;4251486;33;20060;-73
2023/05/03 12:47:25;;;;;;;2.37;1.77;;;;;;;;;;4267387;33;20061;-72
2023/05/03 12:49:52;;;;;;;1.20;1.20;;;;;;;;;;4267830;33;20089;-72
2023/05/03 12:52:19;;;;;;;4.53;1.40;;;;;;;;;;4232830;33;20066;-73
2023/05/03 12:54:45;;;;;;;1.37;1.25;;;;;;;;;;4258083;33;20144;-72
2023/05/03 12:57:13;;;;;;;1.33;1.30;;;;;;;;;;4250796;33;20064;-72
2023/05/03 12:59:40;;;;;;;2.50;1.40;;;;;;;;;;4251215;33;20067;-72
2023/05/03 13:02:07;;;;;;;4.95;1.25;;;;;;;;;;4253206;33;20072;-71
2023/05/03 13:04:34;;;;;;;2.25;2.08;;;;;;;;;;4270461;33;20057;-72
2023/05/03 13:07:00;;;;;;;2.72;1.27;;;;;;;;;;4273870;33;20506;-72
2023/05/03 13:09:26;;;;;;;1.12;1.05;;;;;;;;;;4270793;33;20041;-73
2023/05/03 13:11:53;;;;;;;1.58;1.40;;;;;;;;;;4266524;33;20164;-73
2023/05/03 13:14:20;;;;;;;1.98;1.70;;;;;;;;;;4267821;33;20046;-73
2023/05/03 13:16:47;;;;;;;1.75;1.20;;;;;;;;;;4241563;33;20117;-72
2023/05/03 13:19:14;;;;;;;2.17;1.33;;;;;;;;;;4240011;33;20054;-72
2023/05/03 13:21:41;;;;;;;6.82;1.87;;;;;;;;;;4221434;33;20117;-72
2023/05/03 13:24:14;;;;;;;1.40;1.30;;;;;;;;;;4219951;33;20039;-71
2023/05/03 13:26:40;;;;;;;1.35;1.20;;;;;;;;;;4233497;33;20395;-72
2023/05/03 13:29:06;;;;;;;3.62;0.98;;;;;;;;;;4237494;33;20042;-72
2023/05/03 13:31:32;;;;;;;2.83;1.40;;;;;;;;;;4234744;33;20054;-74
2023/05/03 13:33:59;;;;;;;1.80;1.20;;;;;;;;;;4224278;33;20048;-73
2023/05/03 13:36:26;;;;;;;3.80;1.40;;;;;;;;;;4228780;33;20072;-72
2023/05/03 13:38:52;;;;;;;1.65;1.20;;;;;;;;;;4229661;33;20034;-72
2023/05/03 13:41:19;;;;;;;8.57;2.65;;;;;;;;;;4222621;33;20072;-72
2023/05/03 13:43:46;;;;;;;1.08;1.08;;;;;;;;;;4228433;33;20046;-73
2023/05/03 13:46:12;;;;;;;2.17;1.15;;;;;;;;;;4228045;33;20084;-74
2023/05/03 13:48:39;;;;;;;1.92;1.08;;;;;;;;;;4213329;33;20105;-73
2023/05/03 13:51:08;;;;;;;1.55;0.93;;;;;;;;;;4224280;34;20500;-73
2023/05/03 13:53:34;;;;;;;1.00;1.00;;;;;;;;;;4222488;33;20039;-73
2023/05/03 13:56:01;;;;;;;2.85;1.00;;;;;;;;;;4243739;33;20058;-73
2023/05/03 13:58:35;;;;;;;1.37;1.17;;;;;;;;;;4250520;33;20426;-72
2023/05/03 14:01:01;;;;;;;2.00;1.30;;;;;;;;;;4250015;33;20047;-73
2023/05/03 14:03:27;;;;;;;1.02;1.00;;;;;;;;;;4263011;33;20484;-73
2023/05/03 14:05:53;;;;;;;3.87;0.80;;;;;;;;;;4261251;33;20068;-73
2023/05/03 14:08:20;;;;;;;3.55;1.02;;;;;;;;;;4264786;33;20458;-72
2023/05/03 14:10:46;;;;;;;1.15;1.08;;;;;;;;;;4264230;33;20139;-74
2023/05/03 14:13:12;;;;;;;1.12;1.12;;;;;;;;;;4264612;33;20118;-73
2023/05/03 14:15:41;;;;;;;1.30;1.00;;;;;;;;;;4264570;33;20082;-72
2023/05/03 14:18:08;;;;;;;1.95;1.00;;;;;;;;;;4261699;33;20042;-72
2023/05/03 14:20:35;;;;;;;1.95;1.30;;;;;;;;;;4302054;33;20191;-72
2023/05/03 14:23:02;;;;;;;6.25;1.30;;;;;;;;;;4308428;33;20064;-72
2023/05/03 14:25:28;;;;;;;1.62;1.33;;;;;;;;;;4308162;33;20366;-74
2023/05/03 14:27:54;;;;;;;3.53;1.25;;;;;;;;;;4309431;33;20443;-72
2023/05/03 14:30:21;;;;;;;0.98;0.98;;;;;;;;;;4305369;33;20066;-71
2023/05/03 14:32:47;;;;;;;1.12;1.12;;;;;;;;;;4307715;33;20328;-72
2023/05/03 14:35:17;;;;;;;1.40;1.00;;;;;;;;;;4307996;33;20056;-72
2023/05/03 14:37:43;;;;;;;1.02;0.95;;;;;;;;;;4308604;33;20049;-72
2023/05/03 14:40:10;;;;;;;1.02;1.00;;;;;;;;;;4310456;33;20092;-72
2023/05/03 14:42:36;;;;;;;1.45;1.35;;;;;;;;;;4305525;33;20058;-72
2023/05/03 14:45:02;;;;;;;2.92;1.12;;;;;;;;;;4289491;33;20061;-72
2023/05/03 14:47:28;;;;;;;1.15;1.02;;;;;;;;;;4291693;33;20100;-73
2023/05/03 14:49:55;;;;;;;1.35;1.35;;;;;;;;;;4292300;33;20108;-72
2023/05/03 14:52:21;;;;;;;1.52;1.00;;;;;;;;;;4292461;33;20037;-74
2023/05/03 14:54:47;;;;;;;1.62;1.23;;;;;;;;;;4291041;33;20072;-72
2023/05/03 14:57:13;;;;;;;1.05;1.05;;;;;;;;;;4289942;33;20074;-73
2023/05/03 14:59:40;;;;;;;2.25;1.00;;;;;;;;;;4292742;33;20490;-73
2023/05/03 15:02:07;;;;;;;1.15;1.05;;;;;;;;;;4291636;33;20426;-73
2023/05/03 15:04:36;;;;;;;3.53;1.12;;;;;;;;;;4291066;33;20037;-75
2023/05/03 15:07:02;;;;;;;3.50;2.03;;;;;;;;;;4277590;33;20097;-73
2023/05/03 15:09:32;;;;;;;1.08;1.00;;;;;;;;;;4277609;33;20580;-72
2023/05/03 15:11:58;;;;;;;4.28;1.30;;;;;;;;;;4277433;33;20038;-73
2023/05/03 15:14:25;;;;;;;1.40;1.30;;;;;;;;;;4274617;33;20057;-73
2023/05/03 15:16:51;;;;;;;1.55;1.37;;;;;;;;;;4287968;33;20048;-72
2023/05/03 15:19:17;;;;;;;1.52;1.02;;;;;;;;;;4292612;33;20109;-72
2023/05/03 15:21:46;;;;;;;1.80;1.00;;;;;;;;;;4291179;33;20490;-72
2023/05/03 15:24:13;;;;;;;5.82;1.50;;;;;;;;;;4262687;33;20046;-75
2023/05/03 15:26:39;;;;;;;4.00;1.15;;;;;;;;;;4261929;33;20153;-72
2023/05/03 15:29:05;;;;;;;2.17;1.33;;;;;;;;;;4252032;33;20076;-72
2023/05/03 15:31:31;;;;;;;2.90;1.12;;;;;;;;;;4248082;33;20088;-72
2023/05/03 15:33:57;;;;;;;6.45;1.85;;;;;;;;;;4248843;33;20472;-72
2023/05/03 15:36:23;;;;;;;3.55;1.10;;;;;;;;;;4233592;33;20216;-74
2023/05/03 15:38:50;;;;;;;1.83;1.10;;;;;;;;;;4222582;33;20077;-71
2023/05/03 15:41:15;;;;;;;1.02;1.02;;;;;;;;;;4221152;34;20500;-72
2023/05/03 15:43:43;;;;;;;1.65;1.30;;;;;;;;;;4220861;34;20050;-72
2023/05/03 15:46:09;;;;;;;7.20;1.25;;;;;;;;;;4220951;34;20076;-71
2023/05/03 15:48:35;;;;;;;1.30;1.20;;;;;;;;;;4218111;34;20051;-73
2023/05/03 15:51:01;;;;;;;1.17;1.08;;;;;;;;;;4221126;34;20065;-72
2023/05/03 15:53:28;;;;;;;1.17;1.08;;;;;;;;;;4220554;33;20117;-72
2023/05/03 15:55:57;;;;;;;1.25;1.25;;;;;;;;;;4248131;33;20038;-72
2023/05/03 15:58:24;;;;;;;2.12;1.92;;;;;;;;;;4258460;33;20435;-72
2023/05/03 16:00:51;;;;;;;1.85;1.58;;;;;;;;;;4261222;33;20126;-72
2023/05/03 16:03:17;;;;;;;1.33;1.23;;;;;;;;;;4275501;33;20060;-73
2023/05/03 16:05:46;;;;;;;2.10;1.33;;;;;;;;;;4276999;33;20417;-74
2023/05/03 16:08:12;;;;;;;1.73;1.17;;;;;;;;;;4274625;33;20049;-73
2023/05/03 16:10:39;;;;;;;4.28;1.55;;;;;;;;;;4267469;33;20127;-73
2023/05/03 16:13:05;;;;;;;0.90;0.90;;;;;;;;;;4277061;33;21101;-74
2023/05/03 16:15:31;;;;;;;3.12;1.30;;;;;;;;;;4309406;33;20049;-73
2023/05/03 16:17:57;;;;;;;2.47;1.35;;;;;;;;;;4308410;33;20053;-73
2023/05/03 16:20:23;;;;;;;7.47;1.62;;;;;;;;;;4309191;33;20447;-73
2023/05/03 16:22:50;;;;;;;1.85;1.37;;;;;;;;;;4306429;33;20100;-71
2023/05/03 16:25:16;;;;;;;1.62;1.35;;;;;;;;;;4277584;33;20327;-74
2023/05/03 16:27:42;;;;;;;2.55;1.40;;;;;;;;;;4277660;33;20067;-72
2023/05/03 16:30:08;;;;;;;1.40;1.30;;;;;;;;;;4276841;33;20054;-73
2023/05/03 16:32:35;;;;;;;3.25;1.15;;;;;;;;;;4274068;33;20479;-75
2023/05/03 16:35:02;;;;;;;5.75;2.05;;;;;;;;;;4270704;33;20071;-72
2023/05/03 16:37:32;;;;;;;4.35;1.25;;;;;;;;;;4277446;33;20081;-72
2023/05/03 16:39:59;;;;;;;2.70;1.35;;;;;;;;;;4275388;33;20046;-72